createdAt,value
2022-09-21T00:00:21.692Z,60.5
2022-09-21T00:01:22.795Z,60.4
2022-09-21T00:02:23.798Z,60.3
2022-09-21T00:03:24.720Z,60.2
2022-09-21T00:04:25.631Z,60.2
2022-09-21T00:05:26.682Z,60.2
2022-09-21T00:06:27.618Z,60.2
2022-09-21T00:07:28.671Z,60.3
2022-09-21T00:08:29.652Z,60.4
2022-09-21T00:09:30.671Z,60.5
2022-09-21T00:10:31.720Z,60.5
2022-09-21T00:11:32.638Z,60.5
2022-09-21T00:12:33.691Z,60.4
2022-09-21T00:13:34.671Z,60.5
2022-09-21T00:14:35.671Z,60.5
2022-09-21T00:15:37.033Z,60.3
2022-09-21T00:16:38.730Z,60.1
2022-09-21T00:17:39.651Z,60.3
2022-09-21T00:18:40.671Z,60.3
2022-09-21T00:19:41.660Z,60.4
2022-09-21T00:20:42.825Z,60.4
2022-09-21T00:21:43.751Z,60.3
2022-09-21T00:22:44.672Z,60.3
2022-09-21T00:23:45.684Z,60.2
2022-09-21T00:24:46.650Z,60.2
2022-09-21T00:25:47.659Z,60.3
2022-09-21T00:26:48.723Z,60.3
2022-09-21T00:27:49.635Z,60.3
2022-09-21T00:28:50.700Z,60.2
2022-09-21T00:29:51.719Z,60.2
2022-09-21T00:30:52.761Z,60
2022-09-21T00:31:53.732Z,59.8
2022-09-21T00:32:54.591Z,60.1
2022-09-21T00:33:55.591Z,60.2
2022-09-21T00:34:56.671Z,60.2
2022-09-21T00:35:57.655Z,60.3
2022-09-21T00:36:58.612Z,60.4
2022-09-21T00:37:59.613Z,60.4
2022-09-21T00:39:00.571Z,60.5
2022-09-21T00:40:01.823Z,60.1
2022-09-21T00:41:02.650Z,60.3
2022-09-21T00:42:03.671Z,60.8
2022-09-21T00:43:04.632Z,60.7
2022-09-21T00:44:05.577Z,60.7
2022-09-21T00:45:06.672Z,60.7
2022-09-21T00:46:07.756Z,60.6
2022-09-21T00:47:08.653Z,60.6
2022-09-21T00:48:09.611Z,60.6
2022-09-21T00:49:10.673Z,60.8
2022-09-21T00:50:11.614Z,61
2022-09-21T00:51:12.681Z,61.1
2022-09-21T00:52:13.672Z,61.1
2022-09-21T00:53:14.692Z,61
2022-09-21T00:54:15.680Z,61
2022-09-21T00:55:16.771Z,60.6
2022-09-21T00:56:18.080Z,60.8
2022-09-21T00:57:19.867Z,60.8
2022-09-21T00:58:21.923Z,60.7
2022-09-21T00:59:26.847Z,60.7
2022-09-21T01:03:45.582Z,60.2
2022-09-21T01:04:46.615Z,60.5
2022-09-21T01:05:47.671Z,60.6
2022-09-21T01:06:48.661Z,60.1
2022-09-21T01:07:49.714Z,60.4
2022-09-21T01:08:50.699Z,60.5
2022-09-21T01:09:51.812Z,60.4
2022-09-21T01:10:53.751Z,60.4
2022-09-21T01:11:54.750Z,60.5
2022-09-21T01:12:55.673Z,60.6
2022-09-21T01:13:56.717Z,60.5
2022-09-21T01:14:57.654Z,60.6
2022-09-21T01:15:58.787Z,60.7
2022-09-21T01:16:59.711Z,60.9
2022-09-21T01:18:00.731Z,60.9
2022-09-21T01:19:01.614Z,60.8
2022-09-21T01:20:02.771Z,60.7
2022-09-21T01:21:03.619Z,60.5
2022-09-21T01:22:04.678Z,60.6
2022-09-21T01:23:05.698Z,60.7
2022-09-21T01:24:06.606Z,60.6
2022-09-21T01:25:07.665Z,60.9
2022-09-21T01:26:08.663Z,60.7
2022-09-21T01:27:09.652Z,61
2022-09-21T01:28:10.705Z,60.9
2022-09-21T01:29:11.650Z,60.9
2022-09-21T01:30:12.784Z,60.7
2022-09-21T01:31:14.811Z,60.8
2022-09-21T01:32:15.632Z,60.7
2022-09-21T01:33:16.711Z,60.6
2022-09-21T01:34:17.690Z,60.5
2022-09-21T01:35:18.712Z,60.4
2022-09-21T01:36:19.691Z,60.3
2022-09-21T01:37:20.702Z,60.5
2022-09-21T01:38:21.731Z,60.6
2022-09-21T01:39:22.860Z,60.6
2022-09-21T01:40:24.649Z,60.5
2022-09-21T01:41:25.671Z,60.6
2022-09-21T01:42:26.630Z,60.5
2022-09-21T01:43:27.718Z,60.6
2022-09-21T01:44:28.692Z,60.7
2022-09-21T01:45:29.755Z,60.8
2022-09-21T01:46:30.674Z,60.8
2022-09-21T01:47:31.690Z,60.8
2022-09-21T01:48:32.846Z,60.7
2022-09-21T01:49:34.971Z,60.6
2022-09-21T01:50:36.913Z,60.7
2022-09-21T01:51:38.881Z,60.6
2022-09-21T01:52:40.854Z,60.7
2022-09-21T01:53:42.684Z,60.7
2022-09-21T01:54:43.671Z,60.6
2022-09-21T01:55:44.880Z,60.5
2022-09-21T01:56:46.721Z,60.4
2022-09-21T01:57:47.680Z,59.9
2022-09-21T01:58:49.064Z,60.2
2022-09-21T01:59:50.608Z,60.3
2022-09-21T02:00:51.897Z,60.3
2022-09-21T02:01:53.791Z,60.5
2022-09-21T02:02:54.932Z,60.6
2022-09-21T02:03:56.951Z,60.7
2022-09-21T02:04:58.911Z,60.6
2022-09-21T02:06:00.674Z,60.7
2022-09-21T02:07:01.711Z,60.8
2022-09-21T02:08:02.876Z,60.8
2022-09-21T02:09:03.732Z,60.8
2022-09-21T02:10:04.732Z,60.7
2022-09-21T02:11:05.714Z,60.5
2022-09-21T02:12:06.732Z,60.7
2022-09-21T02:13:07.631Z,60.8
2022-09-21T02:14:08.711Z,60.8
2022-09-21T02:15:09.774Z,60.7
2022-09-21T02:16:10.817Z,60.7
2022-09-21T02:17:11.672Z,60.7
2022-09-21T02:18:12.712Z,60.7
2022-09-21T02:19:13.851Z,60.6
2022-09-21T02:20:15.911Z,60.4
2022-09-21T02:21:17.715Z,60.6
2022-09-21T02:22:18.651Z,60.6
2022-09-21T02:23:19.698Z,60.5
2022-09-21T02:24:20.759Z,60.4
2022-09-21T02:25:21.772Z,60.4
2022-09-21T02:26:22.704Z,60.6
2022-09-21T02:27:23.691Z,60.6
2022-09-21T02:28:24.592Z,60.8
2022-09-21T02:29:25.677Z,61
2022-09-21T02:30:26.804Z,61.1
2022-09-21T02:31:27.794Z,61.2
2022-09-21T02:32:28.671Z,61.2
2022-09-21T02:33:29.671Z,61.2
2022-09-21T02:34:30.651Z,61.2
2022-09-21T02:35:31.751Z,61.5
2022-09-21T02:36:32.695Z,61.5
2022-09-21T02:37:33.772Z,61.5
2022-09-21T02:38:34.805Z,60.8
2022-09-21T02:39:35.731Z,61.2
2022-09-21T02:40:36.795Z,61.4
2022-09-21T02:41:37.725Z,61.6
2022-09-21T02:42:38.751Z,61.5
2022-09-21T02:43:39.758Z,61.6
2022-09-21T02:44:40.675Z,61.5
2022-09-21T02:45:41.692Z,61.4
2022-09-21T02:46:42.757Z,61.4
2022-09-21T02:47:43.731Z,61.4
2022-09-21T02:48:44.706Z,61.3
2022-09-21T02:49:45.772Z,61.3
2022-09-21T02:50:46.783Z,61.3
2022-09-21T02:51:47.791Z,61.5
2022-09-21T02:52:48.692Z,61.5
2022-09-21T02:53:49.725Z,61.5
2022-09-21T02:54:50.751Z,61.2
2022-09-21T02:55:55.696Z,60.7
2022-09-21T02:56:52.869Z,61.5
2022-09-21T02:57:54.974Z,61.7
2022-09-21T02:58:57.006Z,61.8
2022-09-21T02:59:58.911Z,61.8
2022-09-21T03:01:00.794Z,61.7
2022-09-21T03:02:01.872Z,61.6
2022-09-21T03:03:04.019Z,61.8
2022-09-21T03:04:05.731Z,61.9
2022-09-21T03:05:06.751Z,62
2022-09-21T03:06:07.712Z,62.2
2022-09-21T03:07:08.653Z,62.5
2022-09-21T03:08:09.651Z,62.5
2022-09-21T03:09:10.754Z,62.5
2022-09-21T03:10:11.789Z,62.6
2022-09-21T03:11:12.691Z,62.5
2022-09-21T03:12:13.757Z,62.6
2022-09-21T03:13:14.705Z,62.6
2022-09-21T03:14:15.751Z,62.6
2022-09-21T03:15:16.750Z,62.4
2022-09-21T03:16:18.138Z,62.4
2022-09-21T03:17:19.751Z,62.4
2022-09-21T03:18:20.632Z,62.3
2022-09-21T03:19:21.752Z,62.4
2022-09-21T03:20:22.812Z,62.4
2022-09-21T03:21:24.115Z,62.4
2022-09-21T03:22:25.691Z,62.4
2022-09-21T03:23:26.755Z,62.3
2022-09-21T03:24:27.850Z,62.2
2022-09-21T03:25:28.716Z,62
2022-09-21T03:26:29.796Z,62
2022-09-21T03:27:30.752Z,62.1
2022-09-21T03:28:31.702Z,62.2
2022-09-21T03:29:32.651Z,62.2
2022-09-21T03:30:33.919Z,62.5
2022-09-21T03:31:35.985Z,62.5
2022-09-21T03:32:37.751Z,62.3
2022-09-21T03:33:38.751Z,62.2
2022-09-21T03:34:39.712Z,62.1
2022-09-21T03:35:40.671Z,62.4
2022-09-21T03:36:41.784Z,62.5
2022-09-21T03:37:42.732Z,62.8
2022-09-21T03:38:43.736Z,63.1
2022-09-21T03:39:44.705Z,63.4
2022-09-21T03:40:45.731Z,63.5
2022-09-21T03:41:46.791Z,63.5
2022-09-21T03:42:47.677Z,63.6
2022-09-21T03:43:48.792Z,63.8
2022-09-21T03:44:49.731Z,63.8
2022-09-21T03:45:50.991Z,63.6
2022-09-21T03:46:52.671Z,63.6
2022-09-21T03:47:53.852Z,63.6
2022-09-21T03:48:54.872Z,63.5
2022-09-21T03:49:57.011Z,63.4
2022-09-21T03:50:59.012Z,63.4
2022-09-21T03:52:00.733Z,63.7
2022-09-21T03:53:01.731Z,64
2022-09-21T03:54:02.851Z,64.2
2022-09-21T03:55:03.795Z,64.3
2022-09-21T03:56:04.675Z,64.2
2022-09-21T03:57:05.719Z,64.5
2022-09-21T03:58:06.791Z,64.4
2022-09-21T03:59:10.616Z,64.3
2022-09-21T04:00:08.851Z,64.3
2022-09-21T04:01:09.882Z,64.3
2022-09-21T04:02:10.661Z,64.3
2022-09-21T04:03:11.731Z,64.1
2022-09-21T04:04:12.691Z,64.3
2022-09-21T04:05:13.792Z,64.4
2022-09-21T04:06:14.771Z,64.6
2022-09-21T04:07:15.792Z,64.9
2022-09-21T04:08:16.831Z,65.2
2022-09-21T04:09:17.732Z,65.4
2022-09-21T04:10:18.894Z,65.5
2022-09-21T04:11:19.788Z,65.5
2022-09-21T04:12:20.853Z,65.5
2022-09-21T04:13:21.771Z,65.5
2022-09-21T04:14:22.735Z,65.5
2022-09-21T04:15:23.711Z,65.3
2022-09-21T04:16:24.811Z,65.1
2022-09-21T04:17:25.811Z,65.3
2022-09-21T04:18:26.722Z,65.3
2022-09-21T04:19:27.751Z,65.3
2022-09-21T04:20:28.731Z,65.3
2022-09-21T04:21:29.852Z,65.4
2022-09-21T04:22:30.703Z,65.5
2022-09-21T04:23:31.694Z,65.5
2022-09-21T04:24:32.740Z,65.4
2022-09-21T04:25:33.837Z,65.4
2022-09-21T04:26:34.814Z,65.4
2022-09-21T04:27:35.810Z,65.2
2022-09-21T04:28:36.764Z,65.1
2022-09-21T04:29:37.811Z,65.1
2022-09-21T04:30:38.875Z,65
2022-09-21T04:31:41.075Z,64.8
2022-09-21T04:32:42.813Z,64.6
2022-09-21T04:33:43.976Z,64.4
2022-09-21T04:34:46.051Z,64.4
2022-09-21T04:35:47.911Z,64.2
2022-09-21T04:36:49.852Z,64.4
2022-09-21T04:37:50.808Z,64.2
2022-09-21T04:38:51.974Z,64.2
2022-09-21T04:39:53.831Z,64.3
2022-09-21T04:40:54.819Z,64.3
2022-09-21T04:41:55.794Z,64.4
2022-09-21T04:42:56.792Z,64.4
2022-09-21T04:43:57.751Z,64.5
2022-09-21T04:44:58.813Z,64.5
2022-09-21T04:45:59.900Z,64.5
2022-09-21T04:47:02.013Z,64.7
2022-09-21T04:48:03.892Z,65.1
2022-09-21T04:49:05.861Z,65.2
2022-09-21T04:50:06.921Z,64.9
2022-09-21T04:51:08.871Z,64.8
2022-09-21T04:52:11.695Z,64.7
2022-09-21T04:53:12.931Z,64.4
2022-09-21T04:54:14.833Z,64.4
2022-09-21T04:55:15.992Z,64.2
2022-09-21T04:56:17.779Z,64.2
2022-09-21T04:57:19.527Z,64.1
2022-09-21T04:58:24.327Z,63.7
2022-09-21T04:59:22.904Z,63.6
2022-09-21T05:00:24.950Z,63.7
2022-09-21T05:01:26.971Z,63.5
2022-09-21T05:02:28.855Z,63.5
2022-09-21T05:03:29.923Z,63.5
2022-09-21T05:04:30.932Z,63.4
2022-09-21T05:05:32.833Z,63.4
2022-09-21T05:06:33.891Z,63.6
2022-09-21T05:07:34.772Z,63.8
2022-09-21T05:08:35.712Z,63.8
2022-09-21T05:09:36.831Z,63.6
2022-09-21T05:10:37.912Z,63.5
2022-09-21T05:11:39.997Z,63.5
2022-09-21T05:12:41.987Z,63.5
2022-09-21T05:13:43.727Z,63.4
2022-09-21T05:14:44.802Z,63.3
2022-09-21T05:15:45.880Z,63.3
2022-09-21T05:16:46.843Z,63.3
2022-09-21T05:17:47.832Z,63.2
2022-09-21T05:18:48.832Z,63.4
2022-09-21T05:19:49.852Z,63.6
2022-09-21T05:20:50.831Z,63.7
2022-09-21T05:21:51.819Z,63.8
2022-09-21T05:22:52.840Z,63.9
2022-09-21T05:23:53.791Z,64.1
2022-09-21T05:24:54.816Z,64.3
2022-09-21T05:25:55.771Z,64.5
2022-09-21T05:26:56.806Z,64.6
2022-09-21T05:27:57.791Z,64.6
2022-09-21T05:28:58.865Z,64.4
2022-09-21T05:29:59.804Z,64.4
2022-09-21T05:31:17.031Z,64.4
2022-09-21T05:32:02.830Z,64.5
2022-09-21T05:33:03.813Z,64.6
2022-09-21T05:34:04.811Z,64.7
2022-09-21T05:35:05.792Z,64.8
2022-09-21T05:36:06.811Z,64.8
2022-09-21T05:37:07.811Z,64.6
2022-09-21T05:38:08.892Z,64.4
2022-09-21T05:39:11.132Z,64.4
2022-09-21T05:40:13.066Z,64.4
2022-09-21T05:41:14.779Z,64.3
2022-09-21T05:42:15.794Z,64.4
2022-09-21T05:43:16.783Z,64.6
2022-09-21T05:44:17.833Z,64.7
2022-09-21T05:45:18.851Z,64.5
2022-09-21T05:46:19.855Z,64.5
2022-09-21T05:47:20.856Z,64.4
2022-09-21T05:48:21.802Z,64.4
2022-09-21T05:49:22.793Z,64.4
2022-09-21T05:50:23.799Z,64.4
2022-09-21T05:51:24.871Z,64.3
2022-09-21T05:52:25.871Z,64.1
2022-09-21T05:53:26.811Z,64
2022-09-21T05:54:27.831Z,64
2022-09-21T05:55:28.751Z,64.2
2022-09-21T05:56:29.873Z,64.3
2022-09-21T05:57:31.175Z,64.4
2022-09-21T05:58:31.857Z,64.5
2022-09-21T05:59:32.871Z,64.2
2022-09-21T06:00:33.872Z,64.6
2022-09-21T06:01:35.021Z,64.6
2022-09-21T06:02:36.824Z,64.5
2022-09-21T06:03:37.896Z,64.2
2022-09-21T06:04:38.811Z,64.2
2022-09-21T06:05:39.848Z,64
2022-09-21T06:06:40.832Z,64
2022-09-21T06:07:41.811Z,63.9
2022-09-21T06:08:42.944Z,64
2022-09-21T06:09:43.835Z,64.1
2022-09-21T06:10:44.878Z,64
2022-09-21T06:11:45.791Z,64
2022-09-21T06:12:46.758Z,63.9
2022-09-21T06:13:47.851Z,63.7
2022-09-21T06:14:48.891Z,64
2022-09-21T06:15:49.861Z,63.9
2022-09-21T06:16:51.001Z,63.9
2022-09-21T06:17:51.891Z,63.8
2022-09-21T06:18:53.033Z,63.9
2022-09-21T06:19:54.832Z,64
2022-09-21T06:20:55.818Z,63.9
2022-09-21T06:21:56.842Z,63.9
2022-09-21T06:22:57.911Z,64
2022-09-21T06:23:58.887Z,64
2022-09-21T06:24:59.936Z,63.7
2022-09-21T06:26:00.771Z,63.5
2022-09-21T06:27:01.771Z,63.4
2022-09-21T06:28:02.854Z,63.3
2022-09-21T06:29:03.792Z,62.9
2022-09-21T06:30:04.951Z,62.8
2022-09-21T06:31:05.870Z,62.6
2022-09-21T06:32:06.900Z,62.7
2022-09-21T06:33:07.883Z,62.6
2022-09-21T06:34:08.932Z,62.3
2022-09-21T06:35:09.873Z,62.4
2022-09-21T06:36:10.771Z,62.5
2022-09-21T06:37:11.903Z,62.6
2022-09-21T06:38:12.930Z,62.9
2022-09-21T06:39:13.842Z,63.3
2022-09-21T06:40:14.851Z,63
2022-09-21T06:41:20.221Z,63.1
2022-09-21T06:42:16.832Z,63.2
2022-09-21T06:43:17.910Z,63.5
2022-09-21T06:44:18.891Z,63.4
2022-09-21T06:45:19.771Z,63.4
2022-09-21T06:46:20.938Z,63.1
2022-09-21T06:47:21.814Z,62.9
2022-09-21T06:48:22.853Z,63
2022-09-21T06:49:23.900Z,63.1
2022-09-21T06:50:24.871Z,63.2
2022-09-21T06:51:25.813Z,63.3
2022-09-21T06:52:26.852Z,63.6
2022-09-21T06:53:27.874Z,63.5
2022-09-21T06:54:28.879Z,63.3
2022-09-21T06:55:29.805Z,63.3
2022-09-21T06:56:30.894Z,63.4
2022-09-21T06:57:31.892Z,63.5
2022-09-21T06:58:33.098Z,63.5
2022-09-21T06:59:34.951Z,63.4
2022-09-21T07:00:35.922Z,63.5
2022-09-21T07:01:37.129Z,63.6
2022-09-21T07:02:37.899Z,63.4
2022-09-21T07:03:38.869Z,63.3
2022-09-21T07:04:39.892Z,63.2
2022-09-21T07:05:40.820Z,63.1
2022-09-21T07:06:41.891Z,63.1
2022-09-21T07:07:42.912Z,62.9
2022-09-21T07:10:45.851Z,63
2022-09-21T07:11:46.849Z,62.8
2022-09-21T07:12:47.811Z,62.5
2022-09-21T07:13:48.996Z,62.5
2022-09-21T07:14:50.897Z,62.6
2022-09-21T07:15:53.396Z,62.8
2022-09-21T07:16:52.892Z,62.9
2022-09-21T07:18:05.129Z,63.2
2022-09-21T07:18:54.851Z,63.4
2022-09-21T07:19:55.839Z,63.4
2022-09-21T07:20:56.904Z,64.1
2022-09-21T07:21:57.853Z,64.6
2022-09-21T07:22:58.872Z,65.2
2022-09-21T07:23:59.891Z,65.5
2022-09-21T07:25:00.991Z,66.2
2022-09-21T07:26:02.912Z,66.6
2022-09-21T07:27:03.891Z,66.8
2022-09-21T07:28:04.815Z,66.7
2022-09-21T07:29:06.033Z,66.8
2022-09-21T07:30:06.911Z,66.9
2022-09-21T07:31:07.851Z,66.7
2022-09-21T07:32:08.792Z,66.6
2022-09-21T07:33:09.814Z,66.6
2022-09-21T07:34:10.831Z,66.7
2022-09-21T07:35:11.914Z,66.8
2022-09-21T07:36:13.044Z,67.1
2022-09-21T07:37:13.912Z,67.3
2022-09-21T07:38:14.832Z,66.9
2022-09-21T07:39:15.859Z,66.4
2022-09-21T07:40:16.933Z,66.2
2022-09-21T07:41:17.872Z,65.9
2022-09-21T07:42:18.831Z,65.6
2022-09-21T07:43:19.880Z,65.1
2022-09-21T07:44:20.895Z,64.8
2022-09-21T07:45:22.007Z,64.7
2022-09-21T07:46:22.912Z,64.8
2022-09-21T07:47:23.911Z,64.5
2022-09-21T07:48:24.951Z,64.2
2022-09-21T07:49:26.833Z,63.2
2022-09-21T07:50:27.892Z,63.3
2022-09-21T07:51:28.832Z,63.4
2022-09-21T07:52:29.852Z,63.1
2022-09-21T07:53:30.834Z,62.8
2022-09-21T07:54:31.952Z,62.7
2022-09-21T07:55:32.984Z,62.6
2022-09-21T07:56:33.851Z,62.8
2022-09-21T07:57:34.931Z,62.5
2022-09-21T07:58:35.932Z,62.5
2022-09-21T07:59:36.911Z,63
2022-09-21T08:00:37.958Z,62.8
2022-09-21T08:01:38.871Z,63.5
2022-09-21T08:02:42.746Z,63.2
2022-09-21T08:03:40.831Z,63
2022-09-21T08:04:41.891Z,63.4
2022-09-21T08:05:42.933Z,63.3
2022-09-21T08:06:43.886Z,63.2
2022-09-21T08:07:44.852Z,62.8
2022-09-21T08:08:45.936Z,62.1
2022-09-21T08:09:46.911Z,62.3
2022-09-21T08:10:47.971Z,62.5
2022-09-21T08:11:48.932Z,62.4
2022-09-21T08:12:49.890Z,62.5
2022-09-21T08:13:50.979Z,62.5
2022-09-21T08:14:51.950Z,62.4
2022-09-21T08:15:52.872Z,61.8
2022-09-21T08:16:54.109Z,61.9
2022-09-21T08:17:55.832Z,61.7
2022-09-21T08:18:56.971Z,61.9
2022-09-21T08:19:58.880Z,61.9
2022-09-21T08:20:59.891Z,61.7
2022-09-21T08:22:00.905Z,62
2022-09-21T08:23:01.991Z,61.8
2022-09-21T08:24:02.935Z,61.5
2022-09-21T08:25:03.934Z,61.8
2022-09-21T08:26:04.871Z,62
2022-09-21T08:27:05.892Z,62.3
2022-09-21T08:28:09.761Z,62.3
2022-09-21T08:29:07.911Z,61.9
2022-09-21T08:30:09.009Z,61.6
2022-09-21T08:31:10.032Z,61.4
2022-09-21T08:32:19.016Z,61.5
2022-09-21T08:33:12.911Z,62.1
2022-09-21T08:34:13.851Z,62.2
2022-09-21T08:35:14.832Z,62.6
2022-09-21T08:36:15.853Z,62.7
2022-09-21T08:37:16.974Z,62.2
2022-09-21T08:38:17.911Z,61.8
2022-09-21T08:39:18.891Z,61.8
2022-09-21T08:40:19.979Z,61.7
2022-09-21T08:41:20.956Z,61
2022-09-21T08:42:22.079Z,61.5
2022-09-21T08:43:24.033Z,62.1
2022-09-21T08:44:25.910Z,62
2022-09-21T08:45:26.895Z,61.7
2022-09-21T08:46:27.944Z,61.9
2022-09-21T08:47:28.931Z,62.4
2022-09-21T08:48:33.195Z,61.9
2022-09-21T08:49:30.934Z,62.3
2022-09-21T08:50:32.111Z,62.3
2022-09-21T08:51:33.913Z,62.1
2022-09-21T08:52:34.899Z,62.5
2022-09-21T08:53:35.911Z,62.6
2022-09-21T08:54:36.892Z,62.7
2022-09-21T08:55:37.892Z,62.5
2022-09-21T08:57:00.916Z,61.8
2022-09-21T08:57:39.972Z,61.6
2022-09-21T08:58:40.915Z,61.2
2022-09-21T08:59:42.072Z,60.7
2022-09-21T09:00:44.119Z,61
2022-09-21T09:01:46.074Z,60.6
2022-09-21T09:02:46.891Z,61.3
2022-09-21T09:03:47.932Z,61.2
2022-09-21T09:04:48.920Z,61.9
2022-09-21T09:05:49.811Z,61.2
2022-09-21T09:06:50.951Z,60.9
2022-09-21T09:07:52.014Z,61.1
2022-09-21T09:08:52.931Z,61
2022-09-21T09:09:53.972Z,60.7
2022-09-21T09:10:54.905Z,60.7
2022-09-21T09:11:55.972Z,60.8
2022-09-21T09:12:57.013Z,60.9
2022-09-21T09:13:58.073Z,59.6
2022-09-21T09:14:59.953Z,60.4
2022-09-21T09:16:01.013Z,60.6
2022-09-21T09:17:02.078Z,59
2022-09-21T09:18:04.113Z,60
2022-09-21T09:19:05.959Z,59.4
2022-09-21T09:20:07.032Z,58.7
2022-09-21T09:21:07.896Z,58.6
2022-09-21T09:22:08.969Z,58.4
2022-09-21T09:23:09.952Z,58.6
2022-09-21T09:24:10.922Z,58.5
2022-09-21T09:25:11.891Z,58.1
2022-09-21T09:26:13.052Z,58
2022-09-21T09:27:14.892Z,57.9
2022-09-21T09:28:15.972Z,56.4
2022-09-21T09:29:17.008Z,56.3
2022-09-21T09:30:17.990Z,55.9
2022-09-21T09:31:19.071Z,55.9
2022-09-21T09:32:19.952Z,56.4
2022-09-21T09:33:20.912Z,56.5
2022-09-21T09:34:22.192Z,56.8
2022-09-21T09:35:24.002Z,56.1
2022-09-21T09:36:40.480Z,55.8
2022-09-21T09:37:25.936Z,56.8
2022-09-21T09:38:26.914Z,57.2
2022-09-21T09:39:27.952Z,58
2022-09-21T09:40:29.156Z,58
2022-09-21T09:41:30.959Z,56.3
2022-09-21T09:42:32.040Z,56.5
2022-09-21T09:43:33.016Z,56.8
2022-09-21T09:44:33.965Z,57.6
2022-09-21T09:45:34.958Z,56.3
2022-09-21T09:46:35.966Z,55.2
2022-09-21T09:47:36.952Z,55.7
2022-09-21T09:48:37.972Z,55.9
2022-09-21T09:49:39.033Z,55.3
2022-09-21T09:50:39.979Z,55.2
2022-09-21T09:51:40.976Z,55.5
2022-09-21T09:52:42.012Z,56
2022-09-21T09:53:42.972Z,55.6
2022-09-21T09:54:43.844Z,55.6
2022-09-21T09:55:44.971Z,55.1
2022-09-21T09:56:45.931Z,54.3
2022-09-21T09:57:46.912Z,54.6
2022-09-21T09:58:48.081Z,54.8
2022-09-21T09:59:53.483Z,55.2
2022-09-21T10:00:49.964Z,54.1
2022-09-21T10:01:50.999Z,53.7
2022-09-21T10:02:51.992Z,53.7
2022-09-21T10:03:53.163Z,54.2
2022-09-21T10:04:54.976Z,53
2022-09-21T10:05:56.126Z,52.7
2022-09-21T10:06:57.991Z,54
2022-09-21T10:07:58.894Z,53
2022-09-21T10:08:59.931Z,52.6
2022-09-21T10:10:00.837Z,52.5
2022-09-21T10:11:02.051Z,51.3
2022-09-21T10:12:05.768Z,51.1
2022-09-21T10:13:04.188Z,50.7
2022-09-21T10:14:05.995Z,51.4
2022-09-21T10:15:07.111Z,51.8
2022-09-21T10:16:09.145Z,51.9
2022-09-21T10:17:10.936Z,51.3
2022-09-21T10:18:12.013Z,51.7
2022-09-21T10:19:12.971Z,52.2
2022-09-21T10:20:14.031Z,52.1
2022-09-21T10:21:14.961Z,52.2
2022-09-21T10:22:15.959Z,52.8
2022-09-21T10:23:16.972Z,52.9
2022-09-21T10:24:17.932Z,53
2022-09-21T10:25:18.932Z,53.2
2022-09-21T10:26:20.031Z,53.4
2022-09-21T10:27:21.054Z,52.5
2022-09-21T10:28:22.031Z,51.5
2022-09-21T10:29:22.991Z,52.5
2022-09-21T10:30:23.972Z,52.7
2022-09-21T10:31:25.002Z,51.8
2022-09-21T10:32:25.965Z,52.5
2022-09-21T10:33:26.991Z,51.9
2022-09-21T10:34:27.973Z,51.1
2022-09-21T10:35:29.071Z,51
2022-09-21T10:36:29.959Z,51.4
2022-09-21T10:37:30.991Z,50.9
2022-09-21T10:38:31.952Z,50.7
2022-09-21T10:39:33.073Z,50.5
2022-09-21T10:40:33.968Z,51
2022-09-21T10:41:34.972Z,51
2022-09-21T10:42:35.971Z,51.9
2022-09-21T10:43:39.958Z,51.3
2022-09-21T10:44:37.970Z,51.5
2022-09-21T10:45:38.991Z,51.8
2022-09-21T10:46:40.123Z,52.1
2022-09-21T10:47:41.138Z,52
2022-09-21T10:48:43.273Z,51.7
2022-09-21T10:49:44.931Z,50.8
2022-09-21T10:50:45.911Z,51
2022-09-21T10:51:46.973Z,52.1
2022-09-21T10:52:47.973Z,52.8
2022-09-21T10:53:50.982Z,52.4
2022-09-21T10:54:49.980Z,52.5
2022-09-21T10:56:04.695Z,52
2022-09-21T10:56:52.012Z,53
2022-09-21T10:57:52.993Z,51.4
2022-09-21T10:58:53.991Z,50.4
2022-09-21T10:59:54.895Z,49.7
2022-09-21T11:00:55.991Z,51.4
2022-09-21T11:01:57.059Z,52
2022-09-21T11:02:58.367Z,51.6
2022-09-21T11:04:00.074Z,51.4
2022-09-21T11:05:00.960Z,51.8
2022-09-21T11:06:01.953Z,50.2
2022-09-21T11:07:02.993Z,50
2022-09-21T11:08:04.192Z,52.1
2022-09-21T11:09:06.026Z,50.3
2022-09-21T11:10:07.050Z,48.9
2022-09-21T11:11:08.090Z,48.4
2022-09-21T11:12:09.012Z,48.9
2022-09-21T11:13:10.070Z,47.9
2022-09-21T11:14:10.932Z,47.6
2022-09-21T11:15:11.933Z,47.9
2022-09-21T11:16:13.167Z,48.2
2022-09-21T11:17:14.039Z,48
2022-09-21T11:18:14.998Z,48.5
2022-09-21T11:19:16.011Z,48
2022-09-21T11:20:16.971Z,48.5
2022-09-21T11:21:17.926Z,48.9
2022-09-21T11:22:19.031Z,48.5
2022-09-21T11:23:19.990Z,46.4
2022-09-21T11:24:21.015Z,45.7
2022-09-21T11:25:21.951Z,45.4
2022-09-21T11:26:23.010Z,45.5
2022-09-21T11:27:24.079Z,45.4
2022-09-21T11:28:25.022Z,45
2022-09-21T11:30:26.991Z,46.1
2022-09-21T11:31:28.001Z,46.7
2022-09-21T11:32:29.473Z,46.7
2022-09-21T11:33:31.084Z,47.2
2022-09-21T11:34:31.991Z,46.3
2022-09-21T11:35:33.134Z,46.5
2022-09-21T11:36:34.971Z,46
2022-09-21T11:37:35.996Z,45.9
2022-09-21T11:38:38.771Z,44.9
2022-09-21T11:39:37.949Z,45.3
2022-09-21T11:40:39.016Z,46.1
2022-09-21T11:41:39.992Z,46.6
2022-09-21T11:42:40.952Z,46.8
2022-09-21T11:43:42.131Z,47
2022-09-21T11:44:44.059Z,46.4
2022-09-21T11:45:48.410Z,45.8
2022-09-21T11:46:45.985Z,45.7
2022-09-21T11:47:46.979Z,45.3
2022-09-21T11:48:48.041Z,45.1
2022-09-21T11:49:49.051Z,44.9
2022-09-21T11:51:51.753Z,45.7
2022-09-21T11:52:51.951Z,46
2022-09-21T11:53:53.111Z,47.6
2022-09-21T11:54:54.014Z,47.8
2022-09-21T11:55:55.091Z,47.4
2022-09-21T11:56:56.081Z,47.6
2022-09-21T11:57:57.001Z,44.9
2022-09-21T11:58:58.003Z,44.4
2022-09-21T11:59:59.011Z,44.5
2022-09-21T12:00:59.974Z,45.6
2022-09-21T12:02:01.096Z,44.9
2022-09-21T12:03:02.038Z,44.8
2022-09-21T12:04:03.143Z,44.9
2022-09-21T12:05:04.371Z,45.6
2022-09-21T12:06:06.053Z,45.2
2022-09-21T12:07:07.145Z,44.5
2022-09-21T12:08:08.991Z,45.2
2022-09-21T12:09:10.032Z,45.3
2022-09-21T12:10:11.159Z,44.6
2022-09-21T12:11:12.115Z,45.2
2022-09-21T12:12:14.050Z,45.2
2022-09-21T12:13:15.072Z,45.8
2022-09-21T12:14:16.032Z,46.9
2022-09-21T12:15:17.059Z,45.6
2022-09-21T12:16:18.089Z,43.7
2022-09-21T12:17:19.105Z,44.8
2022-09-21T12:18:20.031Z,44.1
2022-09-21T12:19:21.124Z,43.7
2022-09-21T12:20:22.091Z,44.3
2022-09-21T12:21:23.100Z,44.3
2022-09-21T12:22:24.091Z,44.3
2022-09-21T12:23:25.072Z,43.5
2022-09-21T12:24:29.765Z,43.6
2022-09-21T12:25:26.949Z,44
2022-09-21T12:26:28.036Z,44.3
2022-09-21T12:27:29.090Z,44.5
2022-09-21T12:28:30.042Z,43.2
2022-09-21T12:29:31.025Z,42.7
2022-09-21T12:30:32.170Z,42.7
2022-09-21T12:31:33.033Z,42.2
2022-09-21T12:32:33.959Z,42.5
2022-09-21T12:33:35.091Z,43.4
2022-09-21T12:34:36.040Z,43.2
2022-09-21T12:35:37.072Z,43.2
2022-09-21T12:36:39.473Z,42.7
2022-09-21T12:37:39.058Z,42.2
2022-09-21T12:38:39.953Z,42.8
2022-09-21T12:39:41.051Z,42.8
2022-09-21T12:40:42.033Z,42.7
2022-09-21T12:41:43.090Z,43.1
2022-09-21T12:42:44.073Z,43
2022-09-21T12:43:44.991Z,43.5
2022-09-21T12:44:46.109Z,43.4
2022-09-21T12:45:47.109Z,42.9
2022-09-21T12:46:50.401Z,43.1
2022-09-21T12:47:49.053Z,43.6
2022-09-21T12:48:50.059Z,43
2022-09-21T12:49:51.125Z,43.1
2022-09-21T12:50:51.976Z,43.9
2022-09-21T12:51:53.130Z,42.9
2022-09-21T12:52:54.112Z,43.5
2022-09-21T12:53:54.971Z,42.6
2022-09-21T12:54:55.925Z,42.5
2022-09-21T12:55:57.042Z,44.3
2022-09-21T12:56:58.372Z,43
2022-09-21T12:58:16.285Z,42.5
2022-09-21T12:59:02.031Z,43
2022-09-21T13:00:03.191Z,44.4
2022-09-21T13:01:05.118Z,43.8
2022-09-21T13:02:06.167Z,43.5
2022-09-21T13:03:08.497Z,44.2
2022-09-21T13:04:09.180Z,44.9
2022-09-21T13:05:11.251Z,44.5
2022-09-21T13:06:13.075Z,44.8
2022-09-21T13:07:14.131Z,44.3
2022-09-21T13:08:15.051Z,43.8
2022-09-21T13:09:16.135Z,43.5
2022-09-21T13:10:17.072Z,42.7
2022-09-21T13:11:18.080Z,42.1
2022-09-21T13:12:19.153Z,42.4
2022-09-21T13:13:20.032Z,42.2
2022-09-21T13:14:21.192Z,42.6
2022-09-21T13:15:23.052Z,43.3
2022-09-21T13:16:24.087Z,43.5
2022-09-21T13:17:25.091Z,43.8
2022-09-21T13:18:26.011Z,43.4
2022-09-21T13:19:27.073Z,44.1
2022-09-21T13:20:28.038Z,43.8
2022-09-21T13:21:29.132Z,43.8
2022-09-21T13:22:30.011Z,44.5
2022-09-21T13:23:31.071Z,45.5
2022-09-21T13:24:32.073Z,45.5
2022-09-21T13:25:33.131Z,44.4
2022-09-21T13:26:34.119Z,45.2
2022-09-21T13:27:34.954Z,44.3
2022-09-21T13:28:36.051Z,44.4
2022-09-21T13:29:37.062Z,44.3
2022-09-21T13:30:38.174Z,44.5
2022-09-21T13:31:41.188Z,43.8
2022-09-21T13:32:40.092Z,42.8
2022-09-21T13:33:41.091Z,43.5
2022-09-21T13:34:42.071Z,44.4
2022-09-21T13:35:43.121Z,46.1
2022-09-21T13:36:44.104Z,47
2022-09-21T13:37:45.131Z,46.9
2022-09-21T13:38:46.094Z,47.6
2022-09-21T13:39:47.139Z,48.2
2022-09-21T13:40:48.253Z,47.9
2022-09-21T13:42:02.669Z,47.1
2022-09-21T13:42:50.260Z,47.9
2022-09-21T13:43:52.067Z,48.9
2022-09-21T13:44:53.091Z,49.6